sensor_id;sensor_type;location;lat;lon;timestamp;P1;durP1;ratioP1;P2;durP2;ratioP2
40533;SDS011;26233;51.894;10.192;2023-08-21T00:00:15;4.03;;;3.20;;
40533;SDS011;26233;51.894;10.192;2023-08-21T00:02:42;3.38;;;3.08;;
40533;SDS011;26233;51.894;10.192;2023-08-21T00:05:09;4.25;;;3.00;;
40533;SDS011;26233;51.894;10.192;2023-08-21T00:07:36;4.13;;;2.95;;
40533;SDS011;26233;51.894;10.192;2023-08-21T00:10:04;4.25;;;2.92;;
40533;SDS011;26233;51.894;10.192;2023-08-21T00:12:32;3.20;;;2.90;;
40533;SDS011;26233;51.894;10.192;2023-08-21T00:14:59;3.25;;;2.95;;
40533;SDS011;26233;51.894;10.192;2023-08-21T00:17:28;3.08;;;2.78;;
40533;SDS011;26233;51.894;10.192;2023-08-21T00:19:56;2.97;;;2.78;;
40533;SDS011;26233;51.894;10.192;2023-08-21T00:22:23;3.13;;;2.83;;
40533;SDS011;26233;51.894;10.192;2023-08-21T00:24:50;3.58;;;2.78;;
40533;SDS011;26233;51.894;10.192;2023-08-21T00:27:17;3.97;;;2.95;;
40533;SDS011;26233;51.894;10.192;2023-08-21T00:29:44;2.88;;;2.35;;
40533;SDS011;26233;51.894;10.192;2023-08-21T00:32:11;2.72;;;2.53;;
40533;SDS011;26233;51.894;10.192;2023-08-21T00:34:40;3.85;;;2.70;;
40533;SDS011;26233;51.894;10.192;2023-08-21T00:37:07;3.58;;;2.70;;
40533;SDS011;26233;51.894;10.192;2023-08-21T00:39:34;2.70;;;2.50;;
40533;SDS011;26233;51.894;10.192;2023-08-21T00:42:01;2.65;;;2.42;;
40533;SDS011;26233;51.894;10.192;2023-08-21T00:44:29;2.35;;;2.15;;
40533;SDS011;26233;51.894;10.192;2023-08-21T00:46:56;2.30;;;2.08;;
40533;SDS011;26233;51.894;10.192;2023-08-21T00:49:23;2.63;;;2.42;;
40533;SDS011;26233;51.894;10.192;2023-08-21T00:51:51;2.17;;;1.98;;
40533;SDS011;26233;51.894;10.192;2023-08-21T00:54:19;2.38;;;2.15;;
40533;SDS011;26233;51.894;10.192;2023-08-21T00:56:47;2.72;;;2.47;;
40533;SDS011;26233;51.894;10.192;2023-08-21T00:59:17;4.25;;;2.00;;
40533;SDS011;26233;51.894;10.192;2023-08-21T01:01:45;2.20;;;2.00;;
40533;SDS011;26233;51.894;10.192;2023-08-21T01:04:12;2.95;;;2.00;;
40533;SDS011;26233;51.894;10.192;2023-08-21T01:06:39;1.80;;;1.70;;
40533;SDS011;26233;51.894;10.192;2023-08-21T01:09:11;2.05;;;1.70;;
40533;SDS011;26233;51.894;10.192;2023-08-21T01:11:58;2.03;;;1.52;;
40533;SDS011;26233;51.894;10.192;2023-08-21T01:14:36;1.95;;;1.70;;
40533;SDS011;26233;51.894;10.192;2023-08-21T01:17:11;1.92;;;1.70;;
40533;SDS011;26233;51.894;10.192;2023-08-21T01:19:41;3.78;;;1.88;;
40533;SDS011;26233;51.894;10.192;2023-08-21T01:22:10;1.70;;;1.45;;
40533;SDS011;26233;51.894;10.192;2023-08-21T01:24:39;1.52;;;1.38;;
40533;SDS011;26233;51.894;10.192;2023-08-21T01:27:06;1.58;;;1.33;;
40533;SDS011;26233;51.894;10.192;2023-08-21T01:29:34;1.52;;;1.38;;
40533;SDS011;26233;51.894;10.192;2023-08-21T01:32:03;1.38;;;1.27;;
40533;SDS011;26233;51.894;10.192;2023-08-21T01:34:36;1.60;;;1.30;;
40533;SDS011;26233;51.894;10.192;2023-08-21T01:37:05;1.48;;;1.38;;
40533;SDS011;26233;51.894;10.192;2023-08-21T01:39:33;1.70;;;1.55;;
40533;SDS011;26233;51.894;10.192;2023-08-21T01:42:02;2.40;;;1.60;;
40533;SDS011;26233;51.894;10.192;2023-08-21T01:44:29;1.70;;;1.60;;
40533;SDS011;26233;51.894;10.192;2023-08-21T01:46:56;1.70;;;1.60;;
40533;SDS011;26233;51.894;10.192;2023-08-21T01:49:23;2.28;;;1.48;;
40533;SDS011;26233;51.894;10.192;2023-08-21T01:51:50;2.00;;;1.80;;
40533;SDS011;26233;51.894;10.192;2023-08-21T01:54:18;2.10;;;1.90;;
40533;SDS011;26233;51.894;10.192;2023-08-21T01:56:45;2.00;;;1.50;;
40533;SDS011;26233;51.894;10.192;2023-08-21T01:59:13;1.75;;;1.58;;
40533;SDS011;26233;51.894;10.192;2023-08-21T02:01:42;1.70;;;1.58;;
40533;SDS011;26233;51.894;10.192;2023-08-21T02:04:09;2.53;;;1.80;;
40533;SDS011;26233;51.894;10.192;2023-08-21T02:06:36;2.10;;;1.90;;
40533;SDS011;26233;51.894;10.192;2023-08-21T02:09:04;4.10;;;1.67;;
40533;SDS011;26233;51.894;10.192;2023-08-21T02:11:31;2.92;;;1.67;;
40533;SDS011;26233;51.894;10.192;2023-08-21T02:13:58;2.13;;;1.90;;
40533;SDS011;26233;51.894;10.192;2023-08-21T02:16:26;1.88;;;1.75;;
40533;SDS011;26233;51.894;10.192;2023-08-21T02:18:53;1.90;;;1.80;;
40533;SDS011;26233;51.894;10.192;2023-08-21T02:21:21;2.70;;;1.70;;
40533;SDS011;26233;51.894;10.192;2023-08-21T02:23:49;2.78;;;1.40;;
40533;SDS011;26233;51.894;10.192;2023-08-21T02:26:16;1.98;;;1.80;;
40533;SDS011;26233;51.894;10.192;2023-08-21T02:28:45;1.85;;;1.70;;
40533;SDS011;26233;51.894;10.192;2023-08-21T02:31:12;3.20;;;1.77;;
40533;SDS011;26233;51.894;10.192;2023-08-21T02:33:40;2.10;;;1.60;;
40533;SDS011;26233;51.894;10.192;2023-08-21T02:36:07;2.97;;;1.65;;
40533;SDS011;26233;51.894;10.192;2023-08-21T02:38:35;1.90;;;1.60;;
40533;SDS011;26233;51.894;10.192;2023-08-21T02:41:02;3.05;;;1.98;;
40533;SDS011;26233;51.894;10.192;2023-08-21T02:43:29;2.45;;;1.90;;
40533;SDS011;26233;51.894;10.192;2023-08-21T02:45:56;1.80;;;1.70;;
40533;SDS011;26233;51.894;10.192;2023-08-21T02:48:23;2.10;;;1.90;;
40533;SDS011;26233;51.894;10.192;2023-08-21T02:50:52;2.22;;;2.00;;
40533;SDS011;26233;51.894;10.192;2023-08-21T02:53:19;2.47;;;1.90;;
40533;SDS011;26233;51.894;10.192;2023-08-21T02:55:46;3.80;;;2.00;;
40533;SDS011;26233;51.894;10.192;2023-08-21T02:58:13;3.58;;;1.60;;
40533;SDS011;26233;51.894;10.192;2023-08-21T03:00:40;2.13;;;1.90;;
40533;SDS011;26233;51.894;10.192;2023-08-21T03:03:07;2.00;;;1.77;;
40533;SDS011;26233;51.894;10.192;2023-08-21T03:05:36;2.45;;;1.88;;
40533;SDS011;26233;51.894;10.192;2023-08-21T03:08:04;2.10;;;1.80;;
40533;SDS011;26233;51.894;10.192;2023-08-21T03:10:32;2.42;;;2.00;;
40533;SDS011;26233;51.894;10.192;2023-08-21T03:12:59;3.13;;;1.80;;
40533;SDS011;26233;51.894;10.192;2023-08-21T03:15:27;1.80;;;1.70;;
40533;SDS011;26233;51.894;10.192;2023-08-21T03:17:54;2.30;;;1.70;;
40533;SDS011;26233;51.894;10.192;2023-08-21T03:20:21;2.00;;;1.80;;
40533;SDS011;26233;51.894;10.192;2023-08-21T03:22:48;1.77;;;1.67;;
40533;SDS011;26233;51.894;10.192;2023-08-21T03:25:18;2.33;;;1.88;;
40533;SDS011;26233;51.894;10.192;2023-08-21T03:27:45;1.98;;;1.73;;
40533;SDS011;26233;51.894;10.192;2023-08-21T03:30:14;2.10;;;1.90;;
40533;SDS011;26233;51.894;10.192;2023-08-21T03:32:42;2.50;;;1.85;;
40533;SDS011;26233;51.894;10.192;2023-08-21T03:35:09;2.15;;;1.73;;
40533;SDS011;26233;51.894;10.192;2023-08-21T03:37:36;2.92;;;2.13;;
40533;SDS011;26233;51.894;10.192;2023-08-21T03:40:04;2.08;;;1.88;;
40533;SDS011;26233;51.894;10.192;2023-08-21T03:42:33;1.70;;;1.60;;
40533;SDS011;26233;51.894;10.192;2023-08-21T03:45:01;2.97;;;1.77;;
40533;SDS011;26233;51.894;10.192;2023-08-21T03:47:30;1.70;;;1.60;;
40533;SDS011;26233;51.894;10.192;2023-08-21T03:49:57;2.47;;;1.95;;
40533;SDS011;26233;51.894;10.192;2023-08-21T03:52:24;2.83;;;1.80;;
40533;SDS011;26233;51.894;10.192;2023-08-21T03:54:51;2.25;;;1.80;;
40533;SDS011;26233;51.894;10.192;2023-08-21T03:57:18;2.30;;;2.10;;
40533;SDS011;26233;51.894;10.192;2023-08-21T03:59:47;1.80;;;1.70;;
40533;SDS011;26233;51.894;10.192;2023-08-21T04:02:14;2.00;;;1.85;;
40533;SDS011;26233;51.894;10.192;2023-08-21T04:04:41;1.80;;;1.70;;
40533;SDS011;26233;51.894;10.192;2023-08-21T04:07:08;1.67;;;1.58;;
40533;SDS011;26233;51.894;10.192;2023-08-21T04:09:35;2.17;;;1.98;;
40533;SDS011;26233;51.894;10.192;2023-08-21T04:12:02;1.83;;;1.60;;
40533;SDS011;26233;51.894;10.192;2023-08-21T04:14:30;2.63;;;2.00;;
40533;SDS011;26233;51.894;10.192;2023-08-21T04:16:58;1.80;;;1.70;;
40533;SDS011;26233;51.894;10.192;2023-08-21T04:19:25;1.70;;;1.60;;
40533;SDS011;26233;51.894;10.192;2023-08-21T04:21:55;2.10;;;2.00;;
40533;SDS011;26233;51.894;10.192;2023-08-21T04:24:22;1.90;;;1.80;;
40533;SDS011;26233;51.894;10.192;2023-08-21T04:26:49;1.80;;;1.70;;
40533;SDS011;26233;51.894;10.192;2023-08-21T04:29:16;1.60;;;1.50;;
40533;SDS011;26233;51.894;10.192;2023-08-21T04:31:43;1.70;;;1.60;;
40533;SDS011;26233;51.894;10.192;2023-08-21T04:34:12;2.78;;;1.67;;
40533;SDS011;26233;51.894;10.192;2023-08-21T04:36:39;3.83;;;1.98;;
40533;SDS011;26233;51.894;10.192;2023-08-21T04:39:06;2.00;;;1.80;;
40533;SDS011;26233;51.894;10.192;2023-08-21T04:41:34;1.95;;;1.80;;
40533;SDS011;26233;51.894;10.192;2023-08-21T04:44:01;1.98;;;1.75;;
40533;SDS011;26233;51.894;10.192;2023-08-21T04:46:29;3.28;;;1.83;;
40533;SDS011;26233;51.894;10.192;2023-08-21T04:48:56;2.15;;;1.92;;
40533;SDS011;26233;51.894;10.192;2023-08-21T04:51:24;2.10;;;1.83;;
40533;SDS011;26233;51.894;10.192;2023-08-21T04:53:51;2.08;;;1.83;;
40533;SDS011;26233;51.894;10.192;2023-08-21T04:56:18;2.35;;;1.73;;
40533;SDS011;26233;51.894;10.192;2023-08-21T04:58:45;2.08;;;1.90;;
40533;SDS011;26233;51.894;10.192;2023-08-21T05:01:12;2.00;;;1.80;;
40533;SDS011;26233;51.894;10.192;2023-08-21T05:03:40;2.10;;;1.65;;
40533;SDS011;26233;51.894;10.192;2023-08-21T05:06:07;2.80;;;1.70;;
40533;SDS011;26233;51.894;10.192;2023-08-21T05:08:36;2.00;;;1.90;;
40533;SDS011;26233;51.894;10.192;2023-08-21T05:11:03;1.80;;;1.70;;
40533;SDS011;26233;51.894;10.192;2023-08-21T05:13:30;2.45;;;1.83;;
40533;SDS011;26233;51.894;10.192;2023-08-21T05:15:57;2.75;;;1.77;;
40533;SDS011;26233;51.894;10.192;2023-08-21T05:18:25;1.75;;;1.65;;
40533;SDS011;26233;51.894;10.192;2023-08-21T05:20:54;3.67;;;1.65;;
40533;SDS011;26233;51.894;10.192;2023-08-21T05:23:22;1.95;;;1.70;;
40533;SDS011;26233;51.894;10.192;2023-08-21T05:25:50;1.60;;;1.50;;
40533;SDS011;26233;51.894;10.192;2023-08-21T05:28:18;1.85;;;1.70;;
40533;SDS011;26233;51.894;10.192;2023-08-21T05:30:46;1.67;;;1.58;;
40533;SDS011;26233;51.894;10.192;2023-08-21T05:33:14;2.30;;;1.85;;
40533;SDS011;26233;51.894;10.192;2023-08-21T05:35:41;2.28;;;2.08;;
40533;SDS011;26233;51.894;10.192;2023-08-21T05:38:08;2.05;;;1.88;;
40533;SDS011;26233;51.894;10.192;2023-08-21T05:40:35;2.38;;;2.15;;
40533;SDS011;26233;51.894;10.192;2023-08-21T05:43:04;2.42;;;2.20;;
40533;SDS011;26233;51.894;10.192;2023-08-21T05:45:31;2.42;;;2.22;;
40533;SDS011;26233;51.894;10.192;2023-08-21T05:47:58;4.10;;;2.40;;
40533;SDS011;26233;51.894;10.192;2023-08-21T05:50:25;2.53;;;2.15;;
40533;SDS011;26233;51.894;10.192;2023-08-21T05:52:52;2.40;;;2.15;;
40533;SDS011;26233;51.894;10.192;2023-08-21T05:55:19;3.33;;;2.28;;
40533;SDS011;26233;51.894;10.192;2023-08-21T05:57:47;2.65;;;2.13;;
40533;SDS011;26233;51.894;10.192;2023-08-21T06:00:16;6.05;;;2.15;;
40533;SDS011;26233;51.894;10.192;2023-08-21T06:02:43;4.82;;;2.08;;
40533;SDS011;26233;51.894;10.192;2023-08-21T06:05:11;2.55;;;2.22;;
40533;SDS011;26233;51.894;10.192;2023-08-21T06:07:38;2.42;;;2.08;;
40533;SDS011;26233;51.894;10.192;2023-08-21T06:10:06;2.72;;;2.30;;
40533;SDS011;26233;51.894;10.192;2023-08-21T06:12:36;2.92;;;2.15;;
40533;SDS011;26233;51.894;10.192;2023-08-21T06:15:04;3.00;;;2.22;;
40533;SDS011;26233;51.894;10.192;2023-08-21T06:17:35;2.30;;;2.10;;
40533;SDS011;26233;51.894;10.192;2023-08-21T06:20:02;2.08;;;1.88;;
40533;SDS011;26233;51.894;10.192;2023-08-21T06:22:33;2.25;;;1.95;;
40533;SDS011;26233;51.894;10.192;2023-08-21T06:25:01;2.22;;;1.98;;
40533;SDS011;26233;51.894;10.192;2023-08-21T06:27:29;2.58;;;2.17;;
40533;SDS011;26233;51.894;10.192;2023-08-21T06:29:56;2.10;;;1.90;;
40533;SDS011;26233;51.894;10.192;2023-08-21T06:32:23;2.00;;;1.83;;
40533;SDS011;26233;51.894;10.192;2023-08-21T06:34:52;2.33;;;2.10;;
40533;SDS011;26233;51.894;10.192;2023-08-21T06:37:19;3.03;;;2.25;;
40533;SDS011;26233;51.894;10.192;2023-08-21T06:39:46;2.28;;;2.08;;
40533;SDS011;26233;51.894;10.192;2023-08-21T06:42:13;2.65;;;1.80;;
40533;SDS011;26233;51.894;10.192;2023-08-21T06:44:41;2.10;;;1.88;;
40533;SDS011;26233;51.894;10.192;2023-08-21T06:47:08;2.50;;;2.10;;
40533;SDS011;26233;51.894;10.192;2023-08-21T06:49:35;2.30;;;1.85;;
40533;SDS011;26233;51.894;10.192;2023-08-21T06:52:03;2.20;;;1.98;;
40533;SDS011;26233;51.894;10.192;2023-08-21T06:54:31;1.92;;;1.83;;
40533;SDS011;26233;51.894;10.192;2023-08-21T06:56:58;1.80;;;1.70;;
40533;SDS011;26233;51.894;10.192;2023-08-21T06:59:25;3.22;;;1.90;;
40533;SDS011;26233;51.894;10.192;2023-08-21T07:01:53;2.30;;;1.90;;
40533;SDS011;26233;51.894;10.192;2023-08-21T07:04:20;1.90;;;1.80;;
40533;SDS011;26233;51.894;10.192;2023-08-21T07:06:47;2.33;;;1.92;;
40533;SDS011;26233;51.894;10.192;2023-08-21T07:09:15;2.17;;;1.50;;
40533;SDS011;26233;51.894;10.192;2023-08-21T07:11:43;1.83;;;1.40;;
40533;SDS011;26233;51.894;10.192;2023-08-21T07:14:10;2.17;;;1.75;;
40533;SDS011;26233;51.894;10.192;2023-08-21T07:16:38;2.67;;;2.00;;
40533;SDS011;26233;51.894;10.192;2023-08-21T07:19:06;3.55;;;1.70;;
40533;SDS011;26233;51.894;10.192;2023-08-21T07:21:33;3.42;;;1.85;;
40533;SDS011;26233;51.894;10.192;2023-08-21T07:24:01;2.33;;;1.90;;
40533;SDS011;26233;51.894;10.192;2023-08-21T07:26:30;2.03;;;1.83;;
40533;SDS011;26233;51.894;10.192;2023-08-21T07:28:58;1.85;;;1.73;;
40533;SDS011;26233;51.894;10.192;2023-08-21T07:31:25;2.08;;;1.80;;
40533;SDS011;26233;51.894;10.192;2023-08-21T07:33:52;1.73;;;1.63;;
40533;SDS011;26233;51.894;10.192;2023-08-21T07:36:19;1.95;;;1.45;;
40533;SDS011;26233;51.894;10.192;2023-08-21T07:38:46;1.85;;;1.48;;
40533;SDS011;26233;51.894;10.192;2023-08-21T07:41:13;2.20;;;1.42;;
40533;SDS011;26233;51.894;10.192;2023-08-21T07:43:43;2.92;;;1.45;;
40533;SDS011;26233;51.894;10.192;2023-08-21T07:46:11;1.92;;;1.60;;
40533;SDS011;26233;51.894;10.192;2023-08-21T07:48:41;2.17;;;1.65;;
40533;SDS011;26233;51.894;10.192;2023-08-21T07:51:08;1.95;;;1.77;;
40533;SDS011;26233;51.894;10.192;2023-08-21T07:53:35;1.42;;;1.33;;
40533;SDS011;26233;51.894;10.192;2023-08-21T07:56:03;2.22;;;1.90;;
40533;SDS011;26233;51.894;10.192;2023-08-21T07:58:31;2.80;;;1.50;;
40533;SDS011;26233;51.894;10.192;2023-08-21T08:01:00;2.55;;;1.70;;
40533;SDS011;26233;51.894;10.192;2023-08-21T08:03:29;1.92;;;1.77;;
40533;SDS011;26233;51.894;10.192;2023-08-21T08:05:57;2.95;;;2.13;;
40533;SDS011;26233;51.894;10.192;2023-08-21T08:08:24;2.20;;;1.95;;
40533;SDS011;26233;51.894;10.192;2023-08-21T08:10:51;2.03;;;1.90;;
40533;SDS011;26233;51.894;10.192;2023-08-21T08:13:18;2.22;;;1.90;;
40533;SDS011;26233;51.894;10.192;2023-08-21T08:15:46;2.33;;;1.70;;
40533;SDS011;26233;51.894;10.192;2023-08-21T08:18:15;2.13;;;1.80;;
40533;SDS011;26233;51.894;10.192;2023-08-21T08:20:42;1.50;;;1.40;;
40533;SDS011;26233;51.894;10.192;2023-08-21T08:23:09;1.80;;;1.33;;
40533;SDS011;26233;51.894;10.192;2023-08-21T08:25:36;1.65;;;1.50;;
40533;SDS011;26233;51.894;10.192;2023-08-21T08:28:03;1.75;;;1.42;;
40533;SDS011;26233;51.894;10.192;2023-08-21T08:30:31;1.70;;;1.55;;
40533;SDS011;26233;51.894;10.192;2023-08-21T08:33:00;1.83;;;1.50;;
40533;SDS011;26233;51.894;10.192;2023-08-21T08:35:28;1.98;;;1.60;;
40533;SDS011;26233;51.894;10.192;2023-08-21T08:37:55;1.27;;;1.15;;
40533;SDS011;26233;51.894;10.192;2023-08-21T08:40:22;1.40;;;1.10;;
40533;SDS011;26233;51.894;10.192;2023-08-21T08:42:50;1.40;;;1.30;;
40533;SDS011;26233;51.894;10.192;2023-08-21T08:45:17;1.70;;;1.35;;
40533;SDS011;26233;51.894;10.192;2023-08-21T08:47:57;3.28;;;1.40;;
40533;SDS011;26233;51.894;10.192;2023-08-21T08:50:29;2.00;;;1.30;;
40533;SDS011;26233;51.894;10.192;2023-08-21T08:52:58;1.58;;;1.30;;
40533;SDS011;26233;51.894;10.192;2023-08-21T08:55:26;1.60;;;1.30;;
40533;SDS011;26233;51.894;10.192;2023-08-21T08:57:53;1.70;;;1.30;;
40533;SDS011;26233;51.894;10.192;2023-08-21T09:00:20;1.48;;;1.20;;
40533;SDS011;26233;51.894;10.192;2023-08-21T09:02:48;2.03;;;1.40;;
40533;SDS011;26233;51.894;10.192;2023-08-21T09:05:15;2.97;;;1.70;;
40533;SDS011;26233;51.894;10.192;2023-08-21T09:07:43;1.38;;;1.23;;
40533;SDS011;26233;51.894;10.192;2023-08-21T09:10:14;1.48;;;1.20;;
40533;SDS011;26233;51.894;10.192;2023-08-21T09:12:44;1.60;;;1.48;;
40533;SDS011;26233;51.894;10.192;2023-08-21T09:15:12;1.45;;;1.25;;
40533;SDS011;26233;51.894;10.192;2023-08-21T09:17:39;2.65;;;1.52;;
40533;SDS011;26233;51.894;10.192;2023-08-21T09:20:07;1.33;;;1.23;;
40533;SDS011;26233;51.894;10.192;2023-08-21T09:22:35;1.63;;;1.23;;
40533;SDS011;26233;51.894;10.192;2023-08-21T09:25:04;1.27;;;1.17;;
40533;SDS011;26233;51.894;10.192;2023-08-21T09:27:35;2.85;;;1.20;;
40533;SDS011;26233;51.894;10.192;2023-08-21T09:30:06;1.50;;;1.40;;
40533;SDS011;26233;51.894;10.192;2023-08-21T09:32:51;1.58;;;1.48;;
40533;SDS011;26233;51.894;10.192;2023-08-21T09:35:21;2.60;;;1.50;;
40533;SDS011;26233;51.894;10.192;2023-08-21T09:37:49;1.33;;;1.23;;
40533;SDS011;26233;51.894;10.192;2023-08-21T09:40:19;1.50;;;1.40;;
40533;SDS011;26233;51.894;10.192;2023-08-21T09:42:51;1.65;;;1.55;;
40533;SDS011;26233;51.894;10.192;2023-08-21T09:45:20;1.52;;;1.40;;
40533;SDS011;26233;51.894;10.192;2023-08-21T09:47:48;3.30;;;1.48;;
40533;SDS011;26233;51.894;10.192;2023-08-21T09:50:15;2.05;;;1.60;;
40533;SDS011;26233;51.894;10.192;2023-08-21T09:52:44;1.45;;;1.35;;
40533;SDS011;26233;51.894;10.192;2023-08-21T09:55:13;1.50;;;1.30;;
40533;SDS011;26233;51.894;10.192;2023-08-21T09:57:42;2.20;;;1.60;;
40533;SDS011;26233;51.894;10.192;2023-08-21T10:00:10;3.95;;;1.48;;
40533;SDS011;26233;51.894;10.192;2023-08-21T10:02:41;1.55;;;1.30;;
40533;SDS011;26233;51.894;10.192;2023-08-21T10:05:13;1.75;;;1.50;;
40533;SDS011;26233;51.894;10.192;2023-08-21T10:07:43;2.38;;;1.52;;
40533;SDS011;26233;51.894;10.192;2023-08-21T10:10:13;2.88;;;1.50;;
40533;SDS011;26233;51.894;10.192;2023-08-21T10:12:43;1.30;;;1.20;;
40533;SDS011;26233;51.894;10.192;2023-08-21T10:15:11;1.65;;;1.30;;
40533;SDS011;26233;51.894;10.192;2023-08-21T10:17:38;2.13;;;1.30;;
40533;SDS011;26233;51.894;10.192;2023-08-21T10:20:08;1.20;;;1.10;;
40533;SDS011;26233;51.894;10.192;2023-08-21T10:22:39;1.80;;;1.40;;
40533;SDS011;26233;51.894;10.192;2023-08-21T10:25:13;1.60;;;1.30;;
40533;SDS011;26233;51.894;10.192;2023-08-21T10:27:44;1.85;;;1.40;;
40533;SDS011;26233;51.894;10.192;2023-08-21T10:30:16;2.13;;;1.45;;
40533;SDS011;26233;51.894;10.192;2023-08-21T10:32:48;1.90;;;1.23;;
40533;SDS011;26233;51.894;10.192;2023-08-21T10:35:18;1.40;;;1.30;;
40533;SDS011;26233;51.894;10.192;2023-08-21T10:40:35;3.13;;;1.70;;
40533;SDS011;26233;51.894;10.192;2023-08-21T10:43:05;3.90;;;1.38;;
40533;SDS011;26233;51.894;10.192;2023-08-21T10:46:08;2.78;;;1.45;;
40533;SDS011;26233;51.894;10.192;2023-08-21T10:48:36;1.73;;;1.60;;
40533;SDS011;26233;51.894;10.192;2023-08-21T10:51:05;1.63;;;1.35;;
40533;SDS011;26233;51.894;10.192;2023-08-21T10:53:34;2.33;;;1.77;;
40533;SDS011;26233;51.894;10.192;2023-08-21T10:56:03;2.15;;;1.80;;
40533;SDS011;26233;51.894;10.192;2023-08-21T10:58:35;1.55;;;1.42;;
40533;SDS011;26233;51.894;10.192;2023-08-21T11:01:05;1.75;;;1.52;;
40533;SDS011;26233;51.894;10.192;2023-08-21T11:03:32;3.50;;;2.00;;
40533;SDS011;26233;51.894;10.192;2023-08-21T11:06:00;2.72;;;1.90;;
40533;SDS011;26233;51.894;10.192;2023-08-21T11:08:29;1.98;;;1.75;;
40533;SDS011;26233;51.894;10.192;2023-08-21T11:10:57;1.70;;;1.60;;
40533;SDS011;26233;51.894;10.192;2023-08-21T11:13:25;2.95;;;1.95;;
40533;SDS011;26233;51.894;10.192;2023-08-21T11:16:00;3.28;;;2.00;;
40533;SDS011;26233;51.894;10.192;2023-08-21T11:18:29;2.35;;;1.95;;
40533;SDS011;26233;51.894;10.192;2023-08-21T11:21:04;3.63;;;1.75;;
40533;SDS011;26233;51.894;10.192;2023-08-21T11:23:34;2.78;;;1.73;;
40533;SDS011;26233;51.894;10.192;2023-08-21T11:26:02;2.40;;;2.00;;
40533;SDS011;26233;51.894;10.192;2023-08-21T11:28:30;2.88;;;1.88;;
40533;SDS011;26233;51.894;10.192;2023-08-21T11:30:59;2.72;;;1.77;;
40533;SDS011;26233;51.894;10.192;2023-08-21T11:33:27;3.03;;;2.17;;
40533;SDS011;26233;51.894;10.192;2023-08-21T11:35:54;2.13;;;1.92;;
40533;SDS011;26233;51.894;10.192;2023-08-21T11:38:24;2.38;;;1.85;;
40533;SDS011;26233;51.894;10.192;2023-08-21T11:40:53;2.65;;;2.08;;
40533;SDS011;26233;51.894;10.192;2023-08-21T11:43:22;2.25;;;1.90;;
40533;SDS011;26233;51.894;10.192;2023-08-21T11:46:02;2.65;;;1.88;;
40533;SDS011;26233;51.894;10.192;2023-08-21T11:48:29;2.15;;;1.85;;
40533;SDS011;26233;51.894;10.192;2023-08-21T11:50:57;1.85;;;1.65;;
40533;SDS011;26233;51.894;10.192;2023-08-21T11:53:34;2.35;;;1.73;;
40533;SDS011;26233;51.894;10.192;2023-08-21T11:56:03;3.55;;;2.20;;
40533;SDS011;26233;51.894;10.192;2023-08-21T11:58:37;2.42;;;2.00;;
40533;SDS011;26233;51.894;10.192;2023-08-21T12:01:06;2.05;;;1.70;;
40533;SDS011;26233;51.894;10.192;2023-08-21T12:03:38;2.40;;;1.70;;
40533;SDS011;26233;51.894;10.192;2023-08-21T12:06:06;2.60;;;1.75;;
40533;SDS011;26233;51.894;10.192;2023-08-21T12:08:34;2.60;;;2.13;;
40533;SDS011;26233;51.894;10.192;2023-08-21T12:11:02;4.50;;;1.95;;
40533;SDS011;26233;51.894;10.192;2023-08-21T12:13:29;3.22;;;1.92;;
40533;SDS011;26233;51.894;10.192;2023-08-21T12:15:57;2.85;;;2.10;;
40533;SDS011;26233;51.894;10.192;2023-08-21T12:18:25;2.92;;;1.70;;
40533;SDS011;26233;51.894;10.192;2023-08-21T12:20:53;2.70;;;2.03;;
40533;SDS011;26233;51.894;10.192;2023-08-21T12:23:20;1.92;;;1.52;;
40533;SDS011;26233;51.894;10.192;2023-08-21T12:25:47;2.70;;;1.80;;
40533;SDS011;26233;51.894;10.192;2023-08-21T12:28:14;2.40;;;1.85;;
40533;SDS011;26233;51.894;10.192;2023-08-21T12:30:41;4.72;;;2.00;;
40533;SDS011;26233;51.894;10.192;2023-08-21T12:33:09;5.50;;;2.20;;
40533;SDS011;26233;51.894;10.192;2023-08-21T12:35:38;2.40;;;1.88;;
40533;SDS011;26233;51.894;10.192;2023-08-21T12:38:09;3.60;;;1.73;;
40533;SDS011;26233;51.894;10.192;2023-08-21T12:40:38;2.53;;;1.90;;
40533;SDS011;26233;51.894;10.192;2023-08-21T12:43:05;2.90;;;2.05;;
40533;SDS011;26233;51.894;10.192;2023-08-21T12:45:32;2.38;;;1.80;;
40533;SDS011;26233;51.894;10.192;2023-08-21T12:48:02;2.65;;;1.90;;
40533;SDS011;26233;51.894;10.192;2023-08-21T12:50:30;2.03;;;1.55;;
40533;SDS011;26233;51.894;10.192;2023-08-21T12:52:58;3.47;;;1.92;;
40533;SDS011;26233;51.894;10.192;2023-08-21T12:55:26;2.03;;;1.83;;
40533;SDS011;26233;51.894;10.192;2023-08-21T12:57:54;2.47;;;2.10;;
40533;SDS011;26233;51.894;10.192;2023-08-21T13:00:22;2.10;;;1.85;;
40533;SDS011;26233;51.894;10.192;2023-08-21T13:02:49;3.50;;;1.90;;
40533;SDS011;26233;51.894;10.192;2023-08-21T13:05:16;2.58;;;2.08;;
40533;SDS011;26233;51.894;10.192;2023-08-21T13:07:43;1.90;;;1.77;;
40533;SDS011;26233;51.894;10.192;2023-08-21T13:10:12;2.33;;;1.92;;
40533;SDS011;26233;51.894;10.192;2023-08-21T13:12:40;5.82;;;2.17;;
40533;SDS011;26233;51.894;10.192;2023-08-21T13:15:07;4.97;;;2.25;;
40533;SDS011;26233;51.894;10.192;2023-08-21T13:17:34;2.92;;;1.90;;
40533;SDS011;26233;51.894;10.192;2023-08-21T13:20:02;2.63;;;2.05;;
40533;SDS011;26233;51.894;10.192;2023-08-21T13:22:43;2.08;;;1.88;;
40533;SDS011;26233;51.894;10.192;2023-08-21T13:25:13;3.63;;;2.10;;
40533;SDS011;26233;51.894;10.192;2023-08-21T13:27:41;3.50;;;1.77;;
40533;SDS011;26233;51.894;10.192;2023-08-21T13:30:10;3.30;;;1.85;;
40533;SDS011;26233;51.894;10.192;2023-08-21T13:32:38;1.98;;;1.70;;
40533;SDS011;26233;51.894;10.192;2023-08-21T13:35:06;2.70;;;2.00;;
40533;SDS011;26233;51.894;10.192;2023-08-21T13:37:34;3.15;;;2.08;;
40533;SDS011;26233;51.894;10.192;2023-08-21T13:40:02;2.67;;;2.05;;
40533;SDS011;26233;51.894;10.192;2023-08-21T13:42:38;2.58;;;1.92;;
40533;SDS011;26233;51.894;10.192;2023-08-21T13:45:07;2.42;;;1.73;;
40533;SDS011;26233;51.894;10.192;2023-08-21T13:47:36;4.00;;;2.30;;
40533;SDS011;26233;51.894;10.192;2023-08-21T13:50:04;2.28;;;1.98;;
40533;SDS011;26233;51.894;10.192;2023-08-21T13:52:33;2.13;;;1.92;;
40533;SDS011;26233;51.894;10.192;2023-08-21T13:55:01;4.32;;;2.17;;
40533;SDS011;26233;51.894;10.192;2023-08-21T13:57:30;2.10;;;1.90;;
40533;SDS011;26233;51.894;10.192;2023-08-21T13:59:59;3.05;;;2.15;;
40533;SDS011;26233;51.894;10.192;2023-08-21T14:02:26;2.28;;;1.95;;
40533;SDS011;26233;51.894;10.192;2023-08-21T14:04:53;2.08;;;1.92;;
40533;SDS011;26233;51.894;10.192;2023-08-21T14:07:20;2.60;;;1.90;;
40533;SDS011;26233;51.894;10.192;2023-08-21T14:09:48;2.17;;;1.95;;
40533;SDS011;26233;51.894;10.192;2023-08-21T14:12:15;2.15;;;1.95;;
40533;SDS011;26233;51.894;10.192;2023-08-21T14:14:42;2.38;;;1.73;;
40533;SDS011;26233;51.894;10.192;2023-08-21T14:17:10;2.30;;;2.05;;
40533;SDS011;26233;51.894;10.192;2023-08-21T14:19:37;2.33;;;2.08;;
40533;SDS011;26233;51.894;10.192;2023-08-21T14:22:04;4.43;;;2.10;;
40533;SDS011;26233;51.894;10.192;2023-08-21T14:24:32;2.67;;;2.10;;
40533;SDS011;26233;51.894;10.192;2023-08-21T14:26:59;2.08;;;1.88;;
40533;SDS011;26233;51.894;10.192;2023-08-21T14:29:26;3.60;;;2.30;;
40533;SDS011;26233;51.894;10.192;2023-08-21T14:31:53;2.13;;;1.75;;
40533;SDS011;26233;51.894;10.192;2023-08-21T14:34:23;2.38;;;2.00;;
40533;SDS011;26233;51.894;10.192;2023-08-21T14:36:50;2.05;;;1.90;;
40533;SDS011;26233;51.894;10.192;2023-08-21T14:39:19;2.60;;;2.20;;
40533;SDS011;26233;51.894;10.192;2023-08-21T14:41:47;6.45;;;2.05;;